Time;durP1;ratioP1;P1;durP2;ratioP2;P2;SDS_P1;SDS_P2;PMS_P1;PMS_P2;Temp;Humidity;BMP_temperature;BMP_pressure;BME280_temperature;BME280_humidity;BME280_pressure;Samples;Min_cycle;Max_cycle;Signal;HPM_P1;HPM_P2
2021/06/20 00:01:55;;;;;;;11.73;9.13;;;;;;;;;;10525719;28;20212;-68
2021/06/20 00:06:59;;;;;;;11.52;9.35;;;;;;;;;;10528205;28;20551;-68
2021/06/20 00:12:02;;;;;;;11.63;8.77;;;;;;;;;;10524502;28;20192;-69
2021/06/20 00:17:05;;;;;;;12.43;8.82;;;;;;;;;;10526777;28;20215;-68
2021/06/20 00:22:09;;;;;;;12.52;9.30;;;;;;;;;;10526988;28;20310;-69
2021/06/20 00:27:11;;;;;;;11.95;9.43;;;;;;;;;;10519663;28;20215;-68
2021/06/20 00:32:14;;;;;;;13.43;9.20;;;;;;;;;;10536221;28;20180;-68
2021/06/20 00:37:17;;;;;;;13.70;9.43;;;;;;;;;;10534992;28;20207;-68
2021/06/20 00:42:20;;;;;;;13.23;10.00;;;;;;;;;;10530633;28;20315;-68
2021/06/20 00:47:23;;;;;;;11.77;9.82;;;;;;;;;;10543461;28;20295;-69
2021/06/20 00:52:27;;;;;;;14.07;9.77;;;;;;;;;;10530312;28;20203;-70
2021/06/20 00:57:30;;;;;;;13.35;9.80;;;;;;;;;;10534386;28;20251;-68
2021/06/20 01:02:32;;;;;;;11.70;9.45;;;;;;;;;;10532480;28;20199;-68
2021/06/20 01:07:36;;;;;;;14.27;9.85;;;;;;;;;;10528942;28;20251;-68
2021/06/20 01:12:39;;;;;;;12.25;10.02;;;;;;;;;;10527207;28;20544;-68
2021/06/20 01:17:42;;;;;;;12.52;9.50;;;;;;;;;;10531750;28;20223;-68
2021/06/20 01:22:46;;;;;;;13.43;10.20;;;;;;;;;;10534470;28;20636;-67
2021/06/20 01:27:51;;;;;;;12.30;9.80;;;;;;;;;;10530967;28;20298;-69
2021/06/20 01:32:54;;;;;;;12.77;10.38;;;;;;;;;;10532327;28;20202;-70
2021/06/20 01:37:58;;;;;;;13.98;10.82;;;;;;;;;;10527958;28;20216;-68
2021/06/20 01:43:01;;;;;;;13.40;9.55;;;;;;;;;;10533590;28;20291;-68
2021/06/20 01:48:04;;;;;;;11.68;9.75;;;;;;;;;;10531186;28;20215;-68
2021/06/20 01:53:08;;;;;;;12.50;9.50;;;;;;;;;;10530023;28;20202;-69
2021/06/20 01:58:13;;;;;;;12.27;9.60;;;;;;;;;;10529679;28;20203;-68
2021/06/20 02:03:17;;;;;;;13.18;10.05;;;;;;;;;;10530890;28;20216;-68
2021/06/20 02:08:21;;;;;;;13.23;9.80;;;;;;;;;;10529295;28;20223;-68
2021/06/20 02:13:27;;;;;;;13.27;10.27;;;;;;;;;;10530255;28;20253;-70
2021/06/20 02:18:30;;;;;;;14.23;10.15;;;;;;;;;;10525410;28;20321;-70
2021/06/20 02:23:34;;;;;;;13.10;9.70;;;;;;;;;;10532116;28;20207;-70
2021/06/20 02:28:36;;;;;;;13.00;10.13;;;;;;;;;;10529595;28;20239;-69
2021/06/20 02:33:39;;;;;;;12.88;10.25;;;;;;;;;;10526059;28;20184;-70
2021/06/20 02:38:43;;;;;;;13.38;10.80;;;;;;;;;;10528770;28;20250;-69
2021/06/20 02:43:45;;;;;;;13.23;9.60;;;;;;;;;;10525029;28;20287;-70
2021/06/20 02:48:48;;;;;;;12.95;10.82;;;;;;;;;;10531649;28;20278;-70
2021/06/20 02:53:52;;;;;;;13.85;11.13;;;;;;;;;;10525517;28;20208;-69
2021/06/20 02:58:54;;;;;;;13.50;10.13;;;;;;;;;;10529805;28;20678;-70
2021/06/20 03:03:57;;;;;;;13.75;10.57;;;;;;;;;;10529612;28;20310;-68
2021/06/20 03:09:00;;;;;;;14.60;11.10;;;;;;;;;;10527961;28;20298;-68
2021/06/20 03:14:03;;;;;;;14.38;11.15;;;;;;;;;;10523956;28;20219;-69
2021/06/20 03:19:07;;;;;;;13.93;11.00;;;;;;;;;;10526002;28;20961;-69
2021/06/20 03:24:11;;;;;;;11.90;10.23;;;;;;;;;;10528620;28;20279;-69
2021/06/20 03:29:13;;;;;;;15.55;11.88;;;;;;;;;;10528529;28;20215;-68
2021/06/20 03:34:16;;;;;;;15.57;11.70;;;;;;;;;;10526041;28;20278;-67
2021/06/20 03:39:20;;;;;;;14.53;9.97;;;;;;;;;;10525619;28;20652;-69
2021/06/20 03:44:22;;;;;;;11.60;9.13;;;;;;;;;;10524129;28;20210;-68
2021/06/20 03:49:25;;;;;;;12.25;9.20;;;;;;;;;;10538309;28;20265;-69
2021/06/20 03:54:29;;;;;;;10.80;8.73;;;;;;;;;;10535966;28;20282;-68
2021/06/20 03:59:31;;;;;;;12.47;9.73;;;;;;;;;;10527368;28;20246;-70
2021/06/20 04:04:35;;;;;;;12.23;9.70;;;;;;;;;;10525362;28;20294;-68
2021/06/20 04:09:39;;;;;;;13.80;10.30;;;;;;;;;;10527853;28;20219;-68
2021/06/20 04:14:43;;;;;;;12.57;9.82;;;;;;;;;;10527937;28;20233;-67
2021/06/20 04:20:07;;;;;;;13.85;10.45;;;;;;;;;;10525224;28;20224;-68
2021/06/20 04:25:13;;;;;;;11.82;9.90;;;;;;;;;;10527724;28;20204;-69
2021/06/20 04:30:18;;;;;;;12.25;9.85;;;;;;;;;;10524374;28;20223;-70
2021/06/20 04:35:21;;;;;;;12.63;10.13;;;;;;;;;;10528319;28;20562;-70
2021/06/20 04:40:26;;;;;;;12.65;9.80;;;;;;;;;;10526361;28;20212;-69
2021/06/20 04:45:29;;;;;;;13.05;9.95;;;;;;;;;;10525534;28;20354;-70
2021/06/20 04:50:31;;;;;;;12.90;10.25;;;;;;;;;;10524335;28;20238;-68
2021/06/20 04:55:35;;;;;;;12.65;9.23;;;;;;;;;;10526244;28;20592;-69
2021/06/20 05:00:38;;;;;;;12.02;9.30;;;;;;;;;;10527580;28;20245;-69
2021/06/20 05:05:40;;;;;;;13.57;9.25;;;;;;;;;;10511156;28;20207;-69
2021/06/20 05:10:44;;;;;;;12.90;9.98;;;;;;;;;;10526150;28;20586;-68
2021/06/20 05:15:47;;;;;;;11.80;9.50;;;;;;;;;;10531944;28;20283;-69
2021/06/20 05:20:49;;;;;;;12.50;9.63;;;;;;;;;;10534692;28;20214;-69
2021/06/20 05:25:53;;;;;;;13.75;9.95;;;;;;;;;;10530102;28;20237;-69
2021/06/20 05:30:56;;;;;;;13.02;8.85;;;;;;;;;;10532195;28;20226;-68
2021/06/20 05:35:58;;;;;;;12.82;9.73;;;;;;;;;;10531778;28;20195;-68
2021/06/20 05:41:04;;;;;;;13.35;9.63;;;;;;;;;;10530983;28;20284;-69
2021/06/20 05:46:06;;;;;;;13.80;9.50;;;;;;;;;;10529805;28;20631;-68
2021/06/20 05:51:09;;;;;;;12.93;8.52;;;;;;;;;;10531249;28;20633;-69
2021/06/20 05:56:13;;;;;;;15.27;9.02;;;;;;;;;;10529047;28;20176;-69
2021/06/20 06:01:15;;;;;;;14.25;8.35;;;;;;;;;;10525465;28;20215;-69
2021/06/20 06:06:18;;;;;;;13.75;8.65;;;;;;;;;;10530732;28;20652;-68
2021/06/20 06:11:21;;;;;;;13.82;8.43;;;;;;;;;;10523340;28;20294;-69
2021/06/20 06:16:26;;;;;;;12.02;7.88;;;;;;;;;;10532440;28;20547;-68
2021/06/20 06:21:29;;;;;;;14.98;7.93;;;;;;;;;;10528804;28;20243;-66
2021/06/20 06:26:33;;;;;;;12.80;7.38;;;;;;;;;;10530125;28;20234;-69
2021/06/20 06:31:36;;;;;;;13.32;7.60;;;;;;;;;;10529133;28;20244;-68
2021/06/20 06:36:39;;;;;;;13.25;6.53;;;;;;;;;;10530179;28;20626;-68
2021/06/20 06:41:43;;;;;;;14.13;7.25;;;;;;;;;;10518655;28;20203;-69
2021/06/20 06:46:46;;;;;;;15.70;7.65;;;;;;;;;;10530690;28;20222;-69
2021/06/20 06:51:49;;;;;;;14.15;7.47;;;;;;;;;;10527492;28;20283;-69
2021/06/20 06:56:53;;;;;;;16.15;7.70;;;;;;;;;;10529232;28;20188;-68
2021/06/20 07:01:56;;;;;;;14.90;7.72;;;;;;;;;;10528567;28;20191;-68
2021/06/20 07:06:58;;;;;;;15.40;7.63;;;;;;;;;;10525069;28;20270;-68
2021/06/20 07:12:02;;;;;;;16.10;7.25;;;;;;;;;;10527020;28;20287;-70
2021/06/20 07:17:05;;;;;;;14.95;7.60;;;;;;;;;;10524297;28;20227;-68
2021/06/20 07:22:09;;;;;;;18.23;7.47;;;;;;;;;;10542664;28;20647;-68
2021/06/20 07:27:13;;;;;;;14.25;7.35;;;;;;;;;;10533490;28;20693;-67
2021/06/20 07:32:16;;;;;;;14.10;7.32;;;;;;;;;;10527808;28;20302;-70
2021/06/20 07:37:19;;;;;;;15.88;6.70;;;;;;;;;;10528712;28;20310;-68
2021/06/20 07:42:23;;;;;;;15.85;7.47;;;;;;;;;;10526270;28;20200;-69
2021/06/20 07:47:25;;;;;;;14.88;7.10;;;;;;;;;;10526554;28;20658;-69
2021/06/20 07:52:28;;;;;;;16.10;7.03;;;;;;;;;;10522150;28;20257;-69
2021/06/20 07:57:32;;;;;;;17.73;6.78;;;;;;;;;;10526000;28;20315;-70
2021/06/20 08:02:35;;;;;;;17.38;7.15;;;;;;;;;;10527279;28;20230;-71
2021/06/20 08:07:38;;;;;;;15.85;7.00;;;;;;;;;;10527735;28;20227;-68
2021/06/20 08:12:42;;;;;;;16.70;6.35;;;;;;;;;;10530332;28;20254;-69
2021/06/20 08:17:44;;;;;;;12.95;6.25;;;;;;;;;;10528181;28;20215;-70
2021/06/20 08:22:47;;;;;;;15.45;6.45;;;;;;;;;;10535762;28;20192;-69
2021/06/20 08:27:51;;;;;;;15.23;6.10;;;;;;;;;;10521581;28;20247;-68
2021/06/20 08:32:54;;;;;;;18.83;6.43;;;;;;;;;;10531050;28;20227;-71
2021/06/20 08:37:56;;;;;;;16.75;5.65;;;;;;;;;;10525411;28;20207;-69
2021/06/20 08:43:00;;;;;;;15.68;6.18;;;;;;;;;;10526501;28;20207;-68
2021/06/20 08:48:03;;;;;;;16.35;5.47;;;;;;;;;;10526748;28;20718;-69
2021/06/20 08:53:06;;;;;;;14.13;5.15;;;;;;;;;;10536842;28;20191;-71
2021/06/20 08:58:19;;;;;;;13.52;4.80;;;;;;;;;;10544049;28;20239;-71
2021/06/20 09:03:22;;;;;;;10.55;4.68;;;;;;;;;;10533564;28;20660;-72
2021/06/20 09:08:25;;;;;;;14.82;5.82;;;;;;;;;;10529917;28;20226;-72
2021/06/20 09:13:37;;;;;;;12.25;4.80;;;;;;;;;;10542518;28;20188;-73
2021/06/20 09:18:49;;;;;;;15.18;4.40;;;;;;;;;;10535925;28;20239;-73
2021/06/20 09:23:52;;;;;;;14.90;5.10;;;;;;;;;;10522311;28;20192;-71
2021/06/20 09:28:55;;;;;;;20.10;5.55;;;;;;;;;;10527137;28;20299;-71
2021/06/20 09:34:01;;;;;;;14.38;5.00;;;;;;;;;;10532461;28;20224;-71
2021/06/20 09:39:04;;;;;;;15.20;5.28;;;;;;;;;;10531655;28;20424;-70
2021/06/20 09:44:08;;;;;;;15.85;5.28;;;;;;;;;;10525076;28;20251;-72
2021/06/20 09:49:11;;;;;;;16.77;5.03;;;;;;;;;;10531763;28;20299;-72
2021/06/20 09:54:14;;;;;;;17.77;5.50;;;;;;;;;;10531405;28;20381;-73
2021/06/20 09:59:17;;;;;;;15.88;4.90;;;;;;;;;;10534508;28;20285;-73
2021/06/20 10:04:20;;;;;;;16.65;5.22;;;;;;;;;;10530166;28;20282;-73
2021/06/20 10:09:23;;;;;;;13.70;5.35;;;;;;;;;;10531688;28;20227;-74
2021/06/20 10:14:27;;;;;;;13.13;5.25;;;;;;;;;;10530251;28;20252;-73
2021/06/20 10:19:30;;;;;;;14.73;5.28;;;;;;;;;;10532512;28;20243;-72
2021/06/20 10:24:43;;;;;;;16.85;5.45;;;;;;;;;;10531379;28;20192;-73
2021/06/20 10:29:53;;;;;;;15.15;4.85;;;;;;;;;;10526446;28;20236;-73
2021/06/20 10:34:58;;;;;;;16.98;5.45;;;;;;;;;;10528319;28;20310;-71
2021/06/20 10:40:01;;;;;;;18.58;6.80;;;;;;;;;;10518972;28;20208;-71
2021/06/20 10:45:07;;;;;;;16.30;5.40;;;;;;;;;;10532926;28;20196;-74
2021/06/20 10:50:10;;;;;;;14.35;5.60;;;;;;;;;;10542462;28;20227;-73
2021/06/20 10:55:14;;;;;;;17.63;5.85;;;;;;;;;;10531496;28;20630;-70
2021/06/20 11:00:29;;;;;;;15.18;5.85;;;;;;;;;;10528712;28;20216;-71
2021/06/20 11:05:42;;;;;;;14.70;5.50;;;;;;;;;;10533531;28;20204;-73
2021/06/20 11:10:45;;;;;;;15.85;5.95;;;;;;;;;;10531787;28;20620;-72
2021/06/20 11:15:49;;;;;;;15.88;6.18;;;;;;;;;;10531639;28;20212;-73
2021/06/20 11:20:52;;;;;;;16.08;6.40;;;;;;;;;;10532761;28;20269;-73
2021/06/20 11:25:54;;;;;;;17.33;6.20;;;;;;;;;;10527425;28;20213;-72
2021/06/20 11:31:09;;;;;;;15.23;6.10;;;;;;;;;;10529959;28;20250;-73
2021/06/20 11:36:12;;;;;;;17.60;7.78;;;;;;;;;;10530506;28;20196;-73
2021/06/20 11:41:16;;;;;;;18.42;5.53;;;;;;;;;;10529973;28;20239;-72
2021/06/20 11:46:21;;;;;;;15.00;5.80;;;;;;;;;;10535126;28;20238;-72
2021/06/20 11:51:34;;;;;;;17.25;5.78;;;;;;;;;;10528490;28;20283;-72
2021/06/20 11:56:38;;;;;;;18.00;6.10;;;;;;;;;;10526262;28;20299;-72
2021/06/20 12:01:46;;;;;;;17.42;6.15;;;;;;;;;;10534237;28;20279;-73
2021/06/20 12:06:50;;;;;;;18.58;6.30;;;;;;;;;;10525307;28;20230;-73
2021/06/20 12:11:56;;;;;;;20.17;6.25;;;;;;;;;;10519684;28;20531;-72
2021/06/20 12:17:00;;;;;;;20.48;6.13;;;;;;;;;;10523959;28;20306;-73
2021/06/20 12:22:05;;;;;;;16.23;6.28;;;;;;;;;;10527298;28;20257;-71
2021/06/20 12:27:07;;;;;;;14.63;5.88;;;;;;;;;;10534109;28;20238;-73
2021/06/20 12:32:17;;;;;;;20.08;6.55;;;;;;;;;;10533800;28;20266;-72
2021/06/20 12:37:21;;;;;;;20.83;6.80;;;;;;;;;;10529312;28;20573;-73
2021/06/20 12:42:24;;;;;;;20.55;6.80;;;;;;;;;;10530799;28;20250;-74
2021/06/20 12:47:32;;;;;;;16.08;5.90;;;;;;;;;;10533121;28;20247;-72
2021/06/20 12:52:36;;;;;;;15.57;5.55;;;;;;;;;;10533582;28;20324;-73
2021/06/20 12:57:48;;;;;;;16.08;6.13;;;;;;;;;;10534745;28;20215;-72
2021/06/20 13:02:53;;;;;;;23.38;7.57;;;;;;;;;;10528098;28;20248;-71
2021/06/20 13:07:57;;;;;;;23.08;7.47;;;;;;;;;;10531242;28;20713;-71
2021/06/20 13:13:00;;;;;;;14.75;5.05;;;;;;;;;;10531823;28;20234;-74
2021/06/20 13:18:05;;;;;;;15.93;5.78;;;;;;;;;;10532129;28;20239;-72
2021/06/20 13:23:09;;;;;;;13.90;5.25;;;;;;;;;;10525541;28;20827;-70
2021/06/20 13:28:11;;;;;;;17.13;5.75;;;;;;;;;;10524876;28;20222;-68
2021/06/20 13:33:15;;;;;;;15.68;5.50;;;;;;;;;;10525049;28;20202;-71
2021/06/20 13:38:18;;;;;;;16.58;5.95;;;;;;;;;;10535972;28;20235;-72
2021/06/20 13:43:21;;;;;;;19.05;5.60;;;;;;;;;;10526182;28;20200;-72
2021/06/20 13:48:25;;;;;;;19.35;5.82;;;;;;;;;;10526063;28;20231;-72
2021/06/20 13:53:27;;;;;;;17.27;5.65;;;;;;;;;;10520829;28;20276;-71
2021/06/20 13:58:30;;;;;;;17.05;5.10;;;;;;;;;;10526967;28;20265;-71
2021/06/20 14:03:33;;;;;;;19.95;5.90;;;;;;;;;;10529645;28;20252;-71
2021/06/20 14:08:36;;;;;;;17.80;5.07;;;;;;;;;;10526736;28;20540;-70
2021/06/20 14:13:39;;;;;;;16.60;5.25;;;;;;;;;;10528236;28;20199;-71
2021/06/20 14:18:43;;;;;;;15.85;5.05;;;;;;;;;;10526202;28;94015;-71
2021/06/20 14:23:46;;;;;;;19.02;5.80;;;;;;;;;;10530564;28;20245;-69
2021/06/20 14:28:48;;;;;;;16.52;5.43;;;;;;;;;;10530505;28;20697;-71
2021/06/20 14:33:52;;;;;;;19.35;5.80;;;;;;;;;;10528638;28;20184;-71
2021/06/20 14:38:55;;;;;;;16.80;5.95;;;;;;;;;;10528155;28;20227;-71
2021/06/20 14:43:58;;;;;;;14.85;5.50;;;;;;;;;;10526357;28;20204;-72
2021/06/20 14:49:01;;;;;;;17.73;6.10;;;;;;;;;;10531605;28;20280;-72
2021/06/20 14:54:04;;;;;;;21.38;6.78;;;;;;;;;;10529553;28;20187;-72
2021/06/20 14:59:07;;;;;;;16.23;6.65;;;;;;;;;;10527252;28;20219;-71
2021/06/20 15:04:11;;;;;;;19.80;6.65;;;;;;;;;;10525629;28;20572;-72
2021/06/20 15:09:14;;;;;;;17.42;6.82;;;;;;;;;;10523405;28;20227;-71
2021/06/20 15:14:17;;;;;;;17.25;6.65;;;;;;;;;;10529129;28;20195;-71
2021/06/20 15:19:21;;;;;;;17.50;7.10;;;;;;;;;;10528566;28;20283;-71
2021/06/20 15:24:23;;;;;;;17.40;6.90;;;;;;;;;;10524058;28;20199;-71
2021/06/20 15:29:26;;;;;;;17.30;7.47;;;;;;;;;;10527573;28;20377;-71
2021/06/20 15:34:40;;;;;;;20.10;6.95;;;;;;;;;;10527126;28;20715;-71
2021/06/20 15:39:42;;;;;;;17.00;6.68;;;;;;;;;;10518008;28;20212;-71
2021/06/20 15:44:45;;;;;;;17.70;7.28;;;;;;;;;;10527735;28;20203;-72
2021/06/20 15:49:49;;;;;;;16.05;7.70;;;;;;;;;;10524826;28;20748;-72
2021/06/20 15:54:55;;;;;;;17.42;7.65;;;;;;;;;;10515168;28;20203;-73
2021/06/20 15:59:57;;;;;;;18.15;8.25;;;;;;;;;;10516918;28;20556;-71
2021/06/20 16:05:01;;;;;;;16.60;8.23;;;;;;;;;;10530107;28;20625;-70
2021/06/20 16:10:05;;;;;;;18.00;8.15;;;;;;;;;;10518912;28;20701;-69
2021/06/20 16:15:08;;;;;;;17.35;8.20;;;;;;;;;;10519202;28;20198;-70
2021/06/20 16:20:13;;;;;;;18.60;7.57;;;;;;;;;;10523077;28;20291;-73
2021/06/20 16:25:16;;;;;;;23.00;8.07;;;;;;;;;;10519319;28;20252;-75
2021/06/20 16:30:20;;;;;;;17.25;7.35;;;;;;;;;;10525563;28;20222;-74
2021/06/20 16:35:24;;;;;;;17.23;7.55;;;;;;;;;;10515790;28;20207;-75
2021/06/20 16:40:27;;;;;;;18.58;7.72;;;;;;;;;;10512406;28;20426;-74
2021/06/20 16:45:29;;;;;;;16.88;6.18;;;;;;;;;;10523335;28;20241;-74
2021/06/20 16:50:33;;;;;;;16.67;7.07;;;;;;;;;;10538353;28;20288;-73
2021/06/20 16:55:36;;;;;;;17.75;6.07;;;;;;;;;;10535415;28;20224;-70
2021/06/20 17:00:39;;;;;;;17.58;6.55;;;;;;;;;;10544432;28;20203;-67
2021/06/20 17:05:42;;;;;;;19.60;6.97;;;;;;;;;;10533505;28;20567;-67
2021/06/20 17:11:05;;;;;;;17.27;6.60;;;;;;;;;;10545753;28;20246;-68
2021/06/20 17:16:27;;;;;;;17.38;6.32;;;;;;;;;;10546155;28;20212;-67
2021/06/20 17:21:51;;;;;;;17.52;6.35;;;;;;;;;;10533704;28;20244;-68
2021/06/20 17:26:54;;;;;;;15.13;5.95;;;;;;;;;;10526582;28;20679;-68
2021/06/20 17:31:57;;;;;;;14.27;6.43;;;;;;;;;;10532668;28;20196;-66
2021/06/20 17:37:01;;;;;;;18.35;6.72;;;;;;;;;;10534121;28;20218;-68
2021/06/20 17:42:06;;;;;;;17.00;6.80;;;;;;;;;;10528674;28;20192;-67
2021/06/20 17:47:08;;;;;;;19.23;6.93;;;;;;;;;;10534465;28;20532;-69
2021/06/20 17:52:12;;;;;;;19.42;6.72;;;;;;;;;;10536875;28;20191;-69
2021/06/20 17:57:15;;;;;;;13.73;6.53;;;;;;;;;;10542317;28;20214;-69
2021/06/20 18:02:17;;;;;;;18.75;6.82;;;;;;;;;;10530916;28;20203;-68
2021/06/20 18:07:31;;;;;;;17.83;7.10;;;;;;;;;;10531652;28;20223;-68
2021/06/20 18:12:34;;;;;;;14.73;6.82;;;;;;;;;;10531786;28;20188;-65
2021/06/20 18:17:36;;;;;;;18.20;6.80;;;;;;;;;;10530990;28;20299;-66
2021/06/20 18:22:40;;;;;;;15.65;6.65;;;;;;;;;;10526937;28;20832;-66
2021/06/20 18:27:43;;;;;;;19.98;7.68;;;;;;;;;;10527271;28;20576;-66
2021/06/20 18:32:46;;;;;;;15.80;7.28;;;;;;;;;;10527382;28;20188;-67
2021/06/20 18:37:50;;;;;;;16.48;7.82;;;;;;;;;;10529881;28;20211;-66
2021/06/20 18:42:53;;;;;;;19.20;7.45;;;;;;;;;;10527868;28;20192;-65
2021/06/20 18:47:56;;;;;;;20.13;7.57;;;;;;;;;;10528036;28;20312;-67
2021/06/20 18:53:00;;;;;;;15.20;8.02;;;;;;;;;;10529830;28;20231;-64
2021/06/20 18:58:03;;;;;;;19.92;7.38;;;;;;;;;;10525001;28;20208;-65
2021/06/20 19:03:06;;;;;;;20.75;7.95;;;;;;;;;;10523028;28;20187;-65
2021/06/20 19:08:10;;;;;;;20.15;7.35;;;;;;;;;;10526107;28;20239;-65
2021/06/20 19:13:13;;;;;;;18.50;9.38;;;;;;;;;;10528921;28;20212;-66
2021/06/20 19:18:15;;;;;;;19.88;9.82;;;;;;;;;;10527680;28;20234;-66
2021/06/20 19:23:20;;;;;;;20.33;7.90;;;;;;;;;;10528695;28;20271;-66
2021/06/20 19:28:22;;;;;;;18.17;7.55;;;;;;;;;;10525508;28;20211;-66
2021/06/20 19:33:25;;;;;;;19.52;9.85;;;;;;;;;;10527555;28;20290;-65
2021/06/20 19:38:29;;;;;;;18.90;7.22;;;;;;;;;;10527488;28;20265;-66
2021/06/20 19:43:31;;;;;;;15.80;6.57;;;;;;;;;;10524628;28;20615;-65
2021/06/20 19:48:34;;;;;;;19.25;7.80;;;;;;;;;;10528008;28;20212;-65
2021/06/20 19:53:38;;;;;;;16.20;6.57;;;;;;;;;;10530570;28;20298;-67
2021/06/20 19:58:40;;;;;;;16.90;6.93;;;;;;;;;;10526408;28;20223;-66
2021/06/20 20:03:43;;;;;;;17.02;7.70;;;;;;;;;;10527440;28;20646;-66
2021/06/20 20:08:47;;;;;;;17.15;6.88;;;;;;;;;;10525589;28;20263;-66
2021/06/20 20:13:50;;;;;;;17.50;6.78;;;;;;;;;;10528655;28;20881;-66
2021/06/20 20:18:52;;;;;;;16.90;6.00;;;;;;;;;;10525161;28;20284;-68
2021/06/20 20:23:56;;;;;;;18.50;7.05;;;;;;;;;;10519108;28;20202;-67
2021/06/20 20:28:59;;;;;;;19.10;8.23;;;;;;;;;;10521561;28;20207;-66
2021/06/20 20:34:02;;;;;;;21.33;7.50;;;;;;;;;;10522353;28;20188;-66
2021/06/20 20:39:06;;;;;;;19.88;7.72;;;;;;;;;;10525917;28;20208;-70
2021/06/20 20:44:09;;;;;;;20.30;9.15;;;;;;;;;;10526820;28;20191;-69
2021/06/20 20:49:12;;;;;;;14.43;6.90;;;;;;;;;;10538812;28;20566;-69
2021/06/20 20:54:16;;;;;;;18.65;6.68;;;;;;;;;;10524976;28;20184;-69
2021/06/20 20:59:18;;;;;;;22.58;7.57;;;;;;;;;;10526531;28;20314;-69
2021/06/20 21:04:21;;;;;;;19.63;5.85;;;;;;;;;;10532545;28;21039;-69
2021/06/20 21:09:26;;;;;;;16.13;5.78;;;;;;;;;;10534334;28;20208;-70
2021/06/20 21:14:28;;;;;;;18.67;6.30;;;;;;;;;;10533885;28;20286;-69
2021/06/20 21:19:31;;;;;;;16.38;5.85;;;;;;;;;;10530177;28;20216;-69
2021/06/20 21:24:35;;;;;;;20.90;6.53;;;;;;;;;;10534948;28;20191;-70
2021/06/20 21:29:38;;;;;;;18.83;7.50;;;;;;;;;;10533772;28;20203;-70
2021/06/20 21:34:40;;;;;;;20.08;7.05;;;;;;;;;;10527867;28;20187;-68
2021/06/20 21:39:44;;;;;;;17.38;5.97;;;;;;;;;;10526155;28;20314;-69
2021/06/20 21:44:47;;;;;;;16.70;5.70;;;;;;;;;;10533340;28;20269;-70
2021/06/20 21:49:49;;;;;;;15.00;6.07;;;;;;;;;;10530716;28;20242;-70
2021/06/20 21:54:57;;;;;;;17.02;5.25;;;;;;;;;;10531154;28;20196;-69
2021/06/20 22:00:00;;;;;;;14.52;5.85;;;;;;;;;;10532587;28;20295;-71
2021/06/20 22:05:03;;;;;;;17.85;5.30;;;;;;;;;;10530226;28;20271;-73
2021/06/20 22:10:08;;;;;;;17.80;5.88;;;;;;;;;;10526806;28;20251;-70
2021/06/20 22:15:11;;;;;;;13.75;5.95;;;;;;;;;;10530785;28;20228;-69
2021/06/20 22:20:15;;;;;;;17.48;6.18;;;;;;;;;;10531645;28;20638;-72
2021/06/20 22:25:19;;;;;;;16.15;6.13;;;;;;;;;;10532550;28;20263;-73
2021/06/20 22:30:24;;;;;;;19.95;6.13;;;;;;;;;;10532327;28;20290;-70
2021/06/20 22:35:27;;;;;;;17.45;6.55;;;;;;;;;;10530923;28;20241;-72
2021/06/20 22:40:30;;;;;;;17.80;6.57;;;;;;;;;;10532083;28;20212;-71
2021/06/20 22:45:33;;;;;;;18.92;6.13;;;;;;;;;;10530823;28;20207;-72
2021/06/20 22:50:36;;;;;;;18.45;6.57;;;;;;;;;;10530124;28;20749;-72
2021/06/20 22:55:40;;;;;;;16.23;6.80;;;;;;;;;;10531390;28;20205;-73
2021/06/20 23:00:43;;;;;;;16.23;6.25;;;;;;;;;;10525773;28;20212;-71
2021/06/20 23:05:46;;;;;;;17.33;5.97;;;;;;;;;;10529382;28;20200;-70
2021/06/20 23:10:50;;;;;;;14.95;5.72;;;;;;;;;;10527362;28;20375;-66
2021/06/20 23:15:53;;;;;;;14.15;6.50;;;;;;;;;;10528588;28;20242;-70
2021/06/20 23:20:55;;;;;;;19.90;7.15;;;;;;;;;;10527570;28;20235;-71
2021/06/20 23:25:59;;;;;;;17.45;6.75;;;;;;;;;;10515417;28;20209;-69
2021/06/20 23:31:06;;;;;;;21.58;7.50;;;;;;;;;;10529466;28;20215;-70
2021/06/20 23:36:09;;;;;;;18.37;7.70;;;;;;;;;;10527391;28;20552;-70
2021/06/20 23:41:13;;;;;;;17.93;6.80;;;;;;;;;;10527933;28;20680;-69
2021/06/20 23:46:16;;;;;;;15.47;6.63;;;;;;;;;;10528127;28;20301;-68
2021/06/20 23:51:18;;;;;;;16.77;6.83;;;;;;;;;;10527092;28;20679;-70
2021/06/20 23:56:22;;;;;;;17.27;6.73;;;;;;;;;;10525519;28;20203;-69
